createdAt,value
2022-12-18T00:02:25.199Z,34.23
2022-12-18T00:05:37.144Z,37.08
2022-12-18T00:08:49.900Z,36.38
2022-12-18T00:15:17.305Z,35.25
2022-12-18T00:18:29.376Z,36.50
2022-12-18T00:21:41.517Z,34.08
2022-12-18T00:24:54.436Z,31.05
2022-12-18T00:28:06.561Z,35.55
2022-12-18T00:31:21.503Z,33.75
2022-12-18T00:34:33.416Z,33.13
2022-12-18T00:37:45.154Z,34.43
2022-12-18T00:40:57.219Z,33.33
2022-12-18T00:44:10.618Z,33.40
2022-12-18T00:47:22.557Z,34.45
2022-12-18T00:50:34.751Z,32.53
2022-12-18T00:53:46.574Z,34.35
2022-12-18T00:56:58.552Z,35.58
2022-12-18T01:00:14.662Z,33.38
2022-12-18T01:03:27.121Z,34.85
2022-12-18T01:06:38.954Z,35.13
2022-12-18T01:09:52.346Z,32.93
2022-12-18T01:13:04.399Z,32.80
2022-12-18T01:16:18.564Z,34.03
2022-12-18T01:19:30.647Z,33.38
2022-12-18T01:22:43.921Z,33.68
2022-12-18T01:25:55.710Z,32.88
2022-12-18T01:29:07.582Z,32.15
2022-12-18T01:32:19.481Z,33.73
2022-12-18T01:35:31.594Z,32.20
2022-12-18T01:38:43.345Z,33.13
2022-12-18T01:42:09.424Z,33.55
2022-12-18T01:45:35.773Z,31.83
2022-12-18T01:48:48.369Z,34.30
2022-12-18T01:52:00.465Z,32.30
2022-12-18T01:55:15.443Z,32.85
2022-12-18T01:58:32.349Z,31.88
2022-12-18T02:01:45.482Z,32.03
2022-12-18T02:04:57.586Z,30.40
2022-12-18T02:08:16.357Z,32.20
2022-12-18T02:11:37.365Z,33.03
2022-12-18T02:14:54.857Z,31.43
2022-12-18T02:18:11.205Z,32.13
2022-12-18T02:21:29.656Z,32.38
2022-12-18T02:24:46.745Z,31.45
2022-12-18T02:28:03.444Z,30.60
2022-12-18T02:31:21.612Z,31.33
2022-12-18T02:34:38.045Z,30.73
2022-12-18T02:37:52.911Z,32.55
2022-12-18T02:41:07.552Z,31.17
2022-12-18T02:44:21.325Z,30.85
2022-12-18T02:47:38.230Z,31.85
2022-12-18T02:50:56.679Z,33.78
2022-12-18T02:54:14.371Z,30.65
2022-12-18T02:57:33.402Z,32.38
2022-12-18T03:00:52.087Z,32.78
2022-12-18T03:04:09.472Z,31.70
2022-12-18T03:07:27.189Z,31.20
2022-12-18T03:10:45.004Z,31.18
2022-12-18T03:17:13.616Z,32.70
2022-12-18T03:20:28.935Z,32.53
2022-12-18T03:23:45.647Z,31.73
2022-12-18T03:27:02.817Z,31.68
2022-12-18T03:30:19.351Z,33.68
2022-12-18T03:33:36.311Z,32.00
2022-12-18T03:36:49.023Z,31.93
2022-12-18T03:40:01.232Z,30.53
2022-12-18T03:43:21.518Z,30.48
2022-12-18T03:46:38.893Z,30.83
2022-12-18T03:50:00.426Z,32.38
2022-12-18T03:53:26.002Z,29.75
2022-12-18T03:56:42.765Z,28.35
2022-12-18T04:00:00.992Z,29.60
2022-12-18T04:03:17.824Z,30.23
2022-12-18T04:06:32.077Z,30.50
2022-12-18T04:09:46.325Z,29.03
2022-12-18T04:13:03.057Z,32.00
2022-12-18T04:16:16.184Z,31.23
2022-12-18T04:19:28.990Z,30.65
2022-12-18T04:22:41.449Z,30.90
2022-12-18T04:25:54.231Z,30.30
2022-12-18T04:29:08.162Z,29.50
2022-12-18T04:32:20.537Z,29.10
2022-12-18T04:35:33.151Z,29.05
2022-12-18T04:38:45.354Z,29.38
2022-12-18T04:41:59.207Z,28.75
2022-12-18T04:45:14.066Z,29.43
2022-12-18T04:48:25.899Z,31.38
2022-12-18T04:51:37.878Z,31.58
2022-12-18T04:54:49.764Z,34.10
2022-12-18T04:58:02.075Z,31.63
2022-12-18T05:01:14.638Z,31.63
2022-12-18T05:04:26.692Z,30.10
2022-12-18T05:07:38.502Z,30.58
2022-12-18T05:10:50.509Z,30.63
2022-12-18T05:14:02.242Z,28.55
2022-12-18T05:17:14.030Z,30.20
2022-12-18T05:20:25.985Z,29.45
2022-12-18T05:23:42.126Z,27.20
2022-12-18T05:26:55.277Z,28.55
2022-12-18T05:30:07.425Z,28.20
2022-12-18T05:33:19.318Z,29.35
2022-12-18T05:36:31.425Z,28.48
2022-12-18T05:39:43.522Z,28.30
2022-12-18T05:42:55.433Z,30.10
2022-12-18T05:46:12.970Z,28.43
2022-12-18T05:49:25.054Z,30.05
2022-12-18T05:52:37.166Z,31.50
2022-12-18T05:55:50.658Z,31.15
2022-12-18T05:59:03.111Z,30.10
2022-12-18T06:02:15.209Z,33.65
2022-12-18T06:05:27.769Z,29.80
2022-12-18T06:08:45.842Z,29.90
2022-12-18T06:11:53.482Z,29.90
2022-12-18T06:15:05.280Z,29.60
2022-12-18T06:18:17.241Z,30.30
2022-12-18T06:21:29.343Z,30.20
2022-12-18T06:24:41.136Z,31.30
2022-12-18T06:27:55.479Z,30.83
2022-12-18T06:31:10.387Z,30.03
2022-12-18T06:34:22.724Z,29.58
2022-12-18T06:37:34.883Z,31.18
2022-12-18T06:40:47.045Z,28.98
2022-12-18T06:44:00.044Z,32.73
2022-12-18T06:47:12.419Z,30.40
2022-12-18T06:50:24.449Z,30.70
2022-12-18T06:53:36.633Z,30.68
2022-12-18T06:56:50.008Z,32.25
2022-12-18T07:00:04.082Z,30.05
2022-12-18T07:03:16.037Z,30.13
2022-12-18T07:06:31.138Z,30.65
2022-12-18T07:09:43.589Z,30.43
2022-12-18T07:12:55.530Z,32.58
2022-12-18T07:16:22.340Z,31.65
2022-12-18T07:19:30.187Z,33.10
2022-12-18T07:22:43.032Z,34.33
2022-12-18T07:25:55.052Z,33.40
2022-12-18T07:29:07.087Z,32.23
2022-12-18T07:32:19.044Z,36.98
2022-12-18T07:35:30.859Z,34.00
2022-12-18T07:38:44.001Z,35.43
2022-12-18T07:42:06.934Z,34.63
2022-12-18T07:45:19.732Z,35.63
2022-12-18T07:48:31.832Z,35.13
2022-12-18T07:51:43.648Z,35.38
2022-12-18T07:54:55.728Z,34.55
2022-12-18T07:58:09.607Z,33.88
2022-12-18T08:01:22.459Z,34.25
2022-12-18T08:04:34.822Z,34.65
2022-12-18T08:07:46.914Z,35.50
2022-12-18T08:10:58.808Z,36.78
2022-12-18T08:14:10.948Z,34.05
2022-12-18T08:17:22.867Z,33.03
2022-12-18T08:20:34.927Z,32.50
2022-12-18T08:23:48.171Z,32.43
2022-12-18T08:30:18.859Z,32.68
2022-12-18T08:33:31.457Z,32.53
2022-12-18T08:36:43.444Z,33.20
2022-12-18T08:39:55.452Z,33.33
2022-12-18T08:43:24.610Z,32.10
2022-12-18T08:46:43.706Z,33.48
2022-12-18T08:49:57.476Z,32.95
2022-12-18T08:53:11.511Z,32.28
2022-12-18T08:56:24.248Z,32.15
2022-12-18T08:59:37.166Z,30.58
2022-12-18T09:02:50.624Z,32.20
2022-12-18T09:06:03.225Z,31.95
2022-12-18T09:09:16.793Z,31.63
2022-12-18T09:12:28.744Z,29.85
2022-12-18T09:15:40.834Z,33.83
2022-12-18T09:18:55.000Z,48.83
2022-12-18T09:22:07.026Z,33.13
2022-12-18T09:25:19.159Z,31.43
2022-12-18T09:28:31.203Z,32.18
2022-12-18T09:31:43.952Z,30.95
2022-12-18T09:34:55.866Z,33.53
2022-12-18T09:38:07.679Z,32.50
2022-12-18T09:41:34.992Z,32.45
2022-12-18T09:44:52.656Z,32.58
2022-12-18T09:48:05.289Z,34.03
2022-12-18T09:51:24.196Z,33.08
2022-12-18T09:54:41.912Z,67.50
2022-12-18T09:58:00.433Z,33.75
2022-12-18T10:01:19.514Z,33.58
2022-12-18T10:04:34.375Z,31.25
2022-12-18T10:08:01.365Z,33.05
2022-12-18T10:11:39.819Z,30.98
2022-12-18T10:14:57.431Z,32.15
2022-12-18T10:18:22.122Z,31.33
2022-12-18T10:21:39.865Z,30.05
2022-12-18T10:24:58.129Z,31.45
2022-12-18T10:28:18.942Z,32.55
2022-12-18T10:31:33.559Z,31.23
2022-12-18T10:34:55.348Z,30.13
2022-12-18T10:38:27.008Z,31.08
2022-12-18T10:41:39.292Z,30.05
2022-12-18T10:44:51.603Z,31.58
2022-12-18T10:48:03.756Z,29.35
2022-12-18T10:51:16.396Z,29.63
2022-12-18T10:54:30.892Z,29.35
2022-12-18T10:57:45.651Z,26.53
2022-12-18T11:01:13.349Z,23.53
2022-12-18T11:04:30.297Z,25.03
2022-12-18T11:07:58.081Z,27.08
2022-12-18T11:11:17.179Z,28.50
2022-12-18T11:14:33.243Z,45.13
2022-12-18T11:17:45.990Z,31.80
2022-12-18T11:21:03.972Z,28.90
2022-12-18T11:24:27.987Z,29.53
2022-12-18T11:27:40.425Z,27.93
2022-12-18T11:30:52.554Z,27.38
2022-12-18T11:34:29.812Z,28.55
2022-12-18T11:37:29.811Z,28.28
2022-12-18T11:40:46.150Z,29.73
2022-12-18T11:44:04.645Z,29.53
2022-12-18T11:47:27.260Z,25.00
2022-12-18T11:50:47.672Z,25.45
2022-12-18T11:54:04.069Z,26.45
2022-12-18T11:57:22.166Z,23.78
2022-12-18T12:00:34.518Z,23.68
2022-12-18T12:04:17.541Z,24.00
2022-12-18T12:07:44.510Z,22.45
2022-12-18T12:11:04.960Z,24.33
2022-12-18T12:14:31.573Z,23.60
2022-12-18T12:17:50.807Z,23.30
2022-12-18T12:21:12.769Z,23.35
2022-12-18T12:24:39.619Z,20.95
2022-12-18T12:27:58.201Z,22.25
2022-12-18T12:31:17.740Z,24.35
2022-12-18T12:34:35.711Z,22.10
2022-12-18T12:37:55.184Z,21.45
2022-12-18T12:41:15.030Z,22.98
2022-12-18T12:44:33.578Z,21.50
2022-12-18T12:47:49.110Z,22.10
2022-12-18T12:51:01.991Z,21.90
2022-12-18T12:54:21.109Z,20.38
2022-12-18T12:57:39.006Z,22.28
2022-12-18T13:00:58.414Z,23.38
2022-12-18T13:04:21.595Z,21.88
2022-12-18T13:07:40.446Z,22.25
2022-12-18T13:10:54.627Z,22.55
2022-12-18T13:14:07.169Z,23.20
2022-12-18T13:17:39.242Z,23.70
2022-12-18T13:20:58.577Z,21.68
2022-12-18T13:24:27.942Z,22.28
2022-12-18T13:28:21.520Z,24.30
2022-12-18T13:32:08.538Z,24.40
2022-12-18T13:35:50.545Z,23.30
2022-12-18T13:39:40.167Z,23.65
2022-12-18T13:43:06.703Z,23.38
2022-12-18T13:46:34.227Z,17.48
2022-12-18T13:49:48.963Z,26.25
2022-12-18T13:53:04.905Z,27.03
2022-12-18T13:56:22.006Z,26.73
2022-12-18T13:59:44.527Z,28.10
2022-12-18T14:02:57.896Z,29.38
2022-12-18T14:06:16.385Z,30.15
2022-12-18T14:09:34.576Z,31.65
2022-12-18T14:13:04.195Z,29.45
2022-12-18T14:16:23.948Z,33.10
2022-12-18T14:19:36.419Z,33.78
2022-12-18T14:22:52.736Z,38.83
2022-12-18T14:26:06.366Z,33.88
2022-12-18T14:29:31.771Z,33.70
2022-12-18T14:32:43.799Z,34.33
2022-12-18T14:36:05.527Z,33.73
2022-12-18T14:39:24.987Z,31.80
2022-12-18T14:42:37.933Z,34.20
2022-12-18T14:45:51.514Z,35.15
2022-12-18T14:49:04.654Z,35.13
2022-12-18T14:52:28.958Z,36.95
2022-12-18T14:55:41.541Z,34.70
2022-12-18T14:59:00.905Z,39.75
2022-12-18T15:02:20.960Z,40.33
2022-12-18T15:05:37.636Z,47.65
2022-12-18T15:08:50.087Z,38.63
2022-12-18T15:12:06.879Z,38.88
2022-12-18T15:19:10.812Z,33.45
2022-12-18T15:22:33.298Z,36.35
2022-12-18T15:25:46.223Z,35.73
2022-12-18T15:29:01.042Z,34.88
2022-12-18T15:32:23.184Z,34.08
2022-12-18T15:35:35.468Z,36.93
2022-12-18T15:38:49.403Z,39.43
2022-12-18T15:42:16.699Z,37.23
2022-12-18T15:48:43.714Z,33.30
2022-12-18T15:51:59.571Z,34.85
2022-12-18T15:55:31.754Z,35.15
2022-12-18T15:58:43.794Z,37.73
2022-12-18T16:01:58.491Z,36.95
2022-12-18T16:05:16.612Z,41.60
2022-12-18T16:08:28.505Z,41.93
2022-12-18T16:11:43.631Z,43.98
2022-12-18T16:14:56.678Z,45.43
2022-12-18T16:18:09.200Z,43.88
2022-12-18T16:21:21.180Z,43.88
2022-12-18T16:24:37.186Z,44.85
2022-12-18T16:27:50.082Z,47.40
2022-12-18T16:31:03.854Z,47.40
2022-12-18T16:34:29.609Z,48.05
2022-12-18T16:37:41.856Z,47.85
2022-12-18T16:41:07.995Z,47.53
2022-12-18T16:44:21.343Z,46.10
2022-12-18T16:47:33.789Z,48.80
2022-12-18T16:50:45.936Z,49.75
2022-12-18T16:53:58.006Z,46.93
2022-12-18T16:57:10.471Z,47.65
2022-12-18T17:00:24.736Z,50.70
2022-12-18T17:03:36.869Z,50.35
2022-12-18T17:06:54.106Z,51.50
2022-12-18T17:13:17.756Z,52.68
2022-12-18T17:16:31.498Z,50.68
2022-12-18T17:19:44.558Z,51.45
2022-12-18T17:22:56.628Z,51.95
2022-12-18T17:26:10.584Z,51.45
2022-12-18T17:29:25.882Z,54.75
2022-12-18T17:32:38.447Z,41.43
2022-12-18T17:35:50.921Z,54.53
2022-12-18T17:39:05.793Z,55.35
2022-12-18T17:42:18.455Z,55.65
2022-12-18T17:45:31.260Z,55.85
2022-12-18T17:48:43.370Z,55.78
2022-12-18T17:51:58.193Z,53.60
2022-12-18T17:55:12.056Z,61.38
2022-12-18T17:58:24.223Z,63.75
2022-12-18T18:01:41.141Z,61.90
2022-12-18T18:04:50.872Z,62.35
2022-12-18T18:08:02.703Z,70.23
2022-12-18T18:11:32.995Z,68.90
2022-12-18T18:14:45.231Z,68.58
2022-12-18T18:17:57.501Z,69.43
2022-12-18T18:21:14.632Z,67.83
2022-12-18T18:24:29.959Z,70.00
2022-12-18T18:27:42.128Z,71.65
2022-12-18T18:30:55.890Z,67.70
2022-12-18T18:34:08.479Z,66.90
2022-12-18T18:37:20.695Z,64.23
2022-12-18T18:40:33.097Z,67.80
2022-12-18T18:43:45.221Z,64.88
2022-12-18T18:46:59.436Z,70.35
2022-12-18T18:50:13.705Z,71.05
2022-12-18T18:53:25.915Z,69.53
2022-12-18T18:57:04.014Z,77.38
2022-12-18T18:59:54.224Z,77.83
2022-12-18T19:03:06.806Z,78.90
2022-12-18T19:06:24.305Z,79.00
2022-12-18T19:09:36.945Z,78.80
2022-12-18T19:13:05.289Z,72.08
2022-12-18T19:16:18.612Z,73.38
2022-12-18T19:19:31.128Z,79.60
2022-12-18T19:22:43.387Z,76.95
2022-12-18T19:26:16.973Z,79.58
2022-12-18T19:29:16.293Z,82.03
2022-12-18T19:32:28.627Z,80.92
2022-12-18T19:35:40.745Z,82.68
2022-12-18T19:38:53.807Z,79.03
2022-12-18T19:42:06.073Z,79.33
2022-12-18T19:45:19.215Z,77.93
2022-12-18T19:48:31.364Z,84.05
2022-12-18T19:51:46.934Z,83.93
2022-12-18T19:54:59.005Z,84.08
2022-12-18T19:58:11.505Z,83.40
2022-12-18T20:01:26.074Z,83.60
2022-12-18T20:04:38.536Z,84.25
2022-12-18T20:07:51.042Z,83.80
2022-12-18T20:11:03.349Z,81.43
2022-12-18T20:14:18.749Z,80.28
2022-12-18T20:17:30.286Z,84.60
2022-12-18T20:20:44.387Z,84.18
2022-12-18T20:24:00.247Z,81.40
2022-12-18T20:27:16.154Z,79.58
2022-12-18T20:30:27.298Z,79.68
2022-12-18T20:33:40.950Z,79.13
2022-12-18T20:36:53.659Z,79.73
2022-12-18T20:40:05.794Z,81.05
2022-12-18T20:43:21.249Z,78.08
2022-12-18T20:46:33.922Z,78.90
2022-12-18T20:49:46.315Z,80.00
2022-12-18T20:52:58.951Z,80.70
2022-12-18T20:56:17.736Z,79.73
2022-12-18T20:59:30.164Z,83.40
2022-12-18T21:02:42.726Z,86.40
2022-12-18T21:05:55.206Z,82.80
2022-12-18T21:09:07.209Z,81.30
2022-12-18T21:12:42.543Z,79.48
2022-12-18T21:15:54.096Z,78.50
2022-12-18T21:19:06.397Z,79.50
2022-12-18T21:22:20.806Z,71.68
2022-12-18T21:25:33.446Z,71.83
2022-12-18T21:28:47.868Z,71.43
2022-12-18T21:32:01.509Z,75.20
2022-12-18T21:35:16.109Z,80.43
2022-12-18T21:38:30.604Z,64.65
2022-12-18T21:41:58.573Z,79.45
2022-12-18T21:45:12.319Z,77.10
2022-12-18T21:48:24.765Z,82.63
2022-12-18T21:51:37.598Z,80.38
2022-12-18T21:54:50.009Z,81.38
2022-12-18T21:58:02.787Z,86.40
2022-12-18T22:01:15.105Z,84.70
2022-12-18T22:04:28.132Z,84.43
2022-12-18T22:07:41.009Z,80.45
2022-12-18T22:10:52.907Z,85.63
2022-12-18T22:14:04.880Z,82.68
2022-12-18T22:17:17.299Z,82.72
2022-12-18T22:20:30.751Z,84.40
2022-12-18T22:23:42.593Z,84.98
2022-12-18T22:27:02.008Z,84.63
2022-12-18T22:30:15.698Z,84.63
2022-12-18T22:33:28.654Z,77.85
2022-12-18T22:36:45.951Z,81.05
2022-12-18T22:39:58.688Z,89.43
2022-12-18T22:43:11.407Z,88.55
2022-12-18T22:46:25.383Z,92.17
2022-12-18T22:49:37.481Z,95.10
2022-12-18T22:52:49.714Z,98.95
2022-12-18T22:56:08.224Z,92.83
2022-12-18T22:59:24.951Z,90.38
2022-12-18T23:02:37.135Z,89.50
2022-12-18T23:05:49.378Z,91.13
2022-12-18T23:09:04.240Z,89.88
2022-12-18T23:12:20.854Z,92.50
2022-12-18T23:15:33.261Z,96.03
2022-12-18T23:18:46.078Z,95.30
2022-12-18T23:21:59.120Z,89.38
2022-12-18T23:25:13.879Z,91.88
2022-12-18T23:28:25.929Z,88.97
2022-12-18T23:31:42.552Z,86.98
2022-12-18T23:34:54.688Z,77.73
2022-12-18T23:38:06.698Z,73.35
2022-12-18T23:41:22.169Z,83.48
2022-12-18T23:44:34.431Z,88.30
2022-12-18T23:47:47.047Z,86.55
2022-12-18T23:51:01.053Z,85.98
2022-12-18T23:54:14.278Z,88.20
2022-12-18T23:57:26.439Z,85.83
